createdAt,value
2023-05-05T00:01:20.564Z,99366.84
2023-05-05T00:03:47.347Z,99372.78
2023-05-05T00:06:14.103Z,99376.31
2023-05-05T00:08:40.877Z,99389.88
2023-05-05T00:11:07.448Z,99379.53
2023-05-05T00:13:34.308Z,99383.75
2023-05-05T00:16:00.782Z,99386.63
2023-05-05T00:18:27.250Z,99396.47
2023-05-05T00:20:54.085Z,99406.19
2023-05-05T00:23:20.783Z,99412.09
2023-05-05T00:25:47.765Z,99418.50
2023-05-05T00:28:14.364Z,99427.16
2023-05-05T00:30:41.010Z,99417.06
2023-05-05T00:33:07.636Z,99412.16
2023-05-05T00:35:36.403Z,99409.09
2023-05-05T00:38:03.225Z,99398.66
2023-05-05T00:40:30.030Z,99396.63
2023-05-05T00:42:56.485Z,99395.38
2023-05-05T00:45:23.251Z,99390.53
2023-05-05T00:47:52.876Z,99397.09
2023-05-05T00:50:25.175Z,99403.53
2023-05-05T00:52:54.793Z,99406.94
2023-05-05T00:55:22.111Z,99406.25
2023-05-05T00:57:49.368Z,99415.53
2023-05-05T01:00:16.979Z,99412.44
2023-05-05T01:02:45.522Z,99423.25
2023-05-05T01:05:14.183Z,99430.28
2023-05-05T01:07:43.874Z,99424.16
2023-05-05T01:10:23.915Z,99423.72
2023-05-05T01:13:05.554Z,99404.50
2023-05-05T01:15:35.010Z,99392.41
2023-05-05T01:18:32.515Z,99401.34
2023-05-05T01:21:19.132Z,99427.78
2023-05-05T01:24:26.458Z,99458.44
2023-05-05T01:27:34.342Z,99477.28
2023-05-05T01:30:31.057Z,99505.16
2023-05-05T01:33:23.782Z,99504.78
2023-05-05T01:36:02.480Z,99517.88
2023-05-05T01:38:37.983Z,99518.25
2023-05-05T01:41:18.295Z,99520.97
2023-05-05T01:43:47.093Z,99557.56
2023-05-05T01:46:15.648Z,99559.25
2023-05-05T01:48:43.978Z,99563.56
2023-05-05T01:51:11.914Z,99574.81
2023-05-05T01:53:43.852Z,99573.41
2023-05-05T01:56:13.354Z,99592.50
2023-05-05T01:58:42.550Z,99605.41
2023-05-05T02:01:10.525Z,99617.19
2023-05-05T02:03:39.240Z,99620.41
2023-05-05T02:06:08.292Z,99623.44
2023-05-05T02:08:37.351Z,99631.47
2023-05-05T02:11:04.838Z,99622.59
2023-05-05T02:13:32.537Z,99626.28
2023-05-05T02:15:59.597Z,99625.09
2023-05-05T02:18:26.926Z,99624.34
2023-05-05T02:20:53.866Z,99634.84
2023-05-05T02:23:20.784Z,99628.50
2023-05-05T02:25:53.332Z,99623.97
2023-05-05T02:28:32.018Z,99638.53
2023-05-05T02:31:01.445Z,99646.91
2023-05-05T02:33:32.030Z,99652.59
2023-05-05T02:36:08.547Z,99668.13
2023-05-05T02:38:40.194Z,99660.47
2023-05-05T02:41:09.473Z,99668.16
2023-05-05T02:43:38.879Z,99676.38
2023-05-05T02:46:05.784Z,99695.72
2023-05-05T02:48:32.698Z,99691.56
2023-05-05T02:50:59.397Z,99692.41
2023-05-05T02:53:27.565Z,99697.75
2023-05-05T02:56:02.454Z,99701.06
2023-05-05T02:58:41.833Z,99693.34
2023-05-05T03:01:22.899Z,99693.13
2023-05-05T03:04:04.829Z,99705.16
2023-05-05T03:06:36.845Z,99714.19
2023-05-05T03:09:18.365Z,99724.56
2023-05-05T03:11:55.398Z,99738.78
2023-05-05T03:14:22.812Z,99730.91
2023-05-05T03:16:50.092Z,99742.44
2023-05-05T03:19:18.550Z,99732.75
2023-05-05T03:21:45.690Z,99734.75
2023-05-05T03:24:13.760Z,99736.25
2023-05-05T03:26:40.872Z,99754.66
2023-05-05T03:29:07.785Z,99759.19
2023-05-05T03:31:34.511Z,99766.84
2023-05-05T03:34:01.334Z,99771.69
2023-05-05T03:36:29.349Z,99772.34
2023-05-05T03:38:56.095Z,99762.16
2023-05-05T03:41:24.717Z,99763.66
2023-05-05T03:43:53.595Z,99763.81
2023-05-05T03:46:20.168Z,99761.13
2023-05-05T03:48:47.028Z,99767.34
2023-05-05T03:51:13.650Z,99778.03
2023-05-05T03:53:40.275Z,99792.88
2023-05-05T03:56:06.973Z,99796.88
2023-05-05T03:58:33.500Z,99803.75
2023-05-05T04:01:00.034Z,99801.38
2023-05-05T04:03:26.802Z,99801.06
2023-05-05T04:05:53.417Z,99802.75
2023-05-05T04:08:20.017Z,99803.44
2023-05-05T04:10:46.684Z,99815.44
2023-05-05T04:13:14.133Z,99818.78
2023-05-05T04:15:45.260Z,99816.09
2023-05-05T04:18:12.070Z,99813.59
2023-05-05T04:20:38.767Z,99818.44
2023-05-05T04:23:05.212Z,99821.09
2023-05-05T04:25:32.005Z,99817.78
2023-05-05T04:27:58.484Z,99802.56
2023-05-05T04:30:25.431Z,99808.06
2023-05-05T04:32:52.008Z,99797.50
2023-05-05T04:35:21.137Z,99785.97
2023-05-05T04:37:47.621Z,99769.50
2023-05-05T04:40:14.662Z,99750.44
2023-05-05T04:42:41.476Z,99750.28
2023-05-05T04:45:09.240Z,99749.63
2023-05-05T04:47:41.951Z,99760.00
2023-05-05T04:50:09.234Z,99783.41
2023-05-05T04:52:36.239Z,99790.88
2023-05-05T04:55:03.282Z,99784.72
2023-05-05T04:57:30.167Z,99787.47
2023-05-05T04:59:57.021Z,99777.38
2023-05-05T05:02:23.695Z,99761.28
2023-05-05T05:04:50.259Z,99754.91
2023-05-05T05:07:16.873Z,99729.72
2023-05-05T05:09:44.315Z,99709.44
2023-05-05T05:12:11.296Z,99689.59
2023-05-05T05:14:38.698Z,99725.72
2023-05-05T05:17:08.807Z,99736.72
2023-05-05T05:19:35.617Z,99733.47
2023-05-05T05:22:02.504Z,99693.81
2023-05-05T05:24:29.134Z,99672.47
2023-05-05T05:26:55.649Z,99674.03
2023-05-05T05:29:22.184Z,99676.59
2023-05-05T05:31:53.360Z,99662.31
2023-05-05T05:34:20.093Z,99653.00
2023-05-05T05:36:46.519Z,99537.59
2023-05-05T05:39:13.401Z,99434.22
2023-05-05T05:41:44.131Z,99303.59
2023-05-05T05:44:11.149Z,99240.03
2023-05-05T05:46:37.744Z,99138.00
2023-05-05T05:49:04.679Z,99170.97
2023-05-05T05:51:34.606Z,99171.63
2023-05-05T05:54:06.428Z,99197.06
2023-05-05T05:56:34.492Z,99160.75
2023-05-05T05:59:01.115Z,99095.63
2023-05-05T06:01:27.711Z,99074.75
2023-05-05T06:03:54.796Z,99008.03
2023-05-05T06:06:21.421Z,99014.69
2023-05-05T06:08:51.222Z,99039.28
2023-05-05T06:11:18.373Z,99086.63
2023-05-05T06:13:45.732Z,99052.03
2023-05-05T06:16:12.623Z,99007.06
2023-05-05T06:18:39.448Z,98986.94
2023-05-05T06:21:07.753Z,98941.25
2023-05-05T06:23:34.686Z,98923.22
2023-05-05T06:26:01.439Z,98910.22
2023-05-05T06:28:28.521Z,98946.31
2023-05-05T06:30:55.761Z,98982.56
2023-05-05T06:33:24.976Z,99026.66
2023-05-05T06:35:52.673Z,99068.59
2023-05-05T06:38:19.188Z,99017.94
2023-05-05T06:40:49.185Z,99000.13
2023-05-05T06:43:17.004Z,98984.34
2023-05-05T06:45:44.407Z,98951.53
2023-05-05T06:48:11.439Z,98918.81
2023-05-05T06:50:40.533Z,98915.41
2023-05-05T06:53:07.299Z,98916.06
2023-05-05T06:55:34.027Z,98923.19
2023-05-05T06:58:01.335Z,98923.88
2023-05-05T07:00:30.276Z,98938.97
2023-05-05T07:02:57.895Z,98968.63
2023-05-05T07:05:25.039Z,98976.03
2023-05-05T07:07:56.233Z,98941.78
2023-05-05T07:10:24.626Z,98939.47
2023-05-05T07:12:52.082Z,98944.50
2023-05-05T07:15:27.986Z,98981.66
2023-05-05T07:17:56.031Z,98980.09
2023-05-05T07:20:22.771Z,98988.94
2023-05-05T07:22:53.961Z,98985.28
2023-05-05T07:25:21.758Z,98951.41
2023-05-05T07:27:48.411Z,98926.53
2023-05-05T07:30:18.982Z,98917.25
2023-05-05T07:32:46.971Z,98920.09
2023-05-05T07:35:13.966Z,98921.72
2023-05-05T07:37:41.839Z,98910.28
2023-05-05T07:40:11.670Z,98908.97
2023-05-05T07:42:38.636Z,98906.50
2023-05-05T07:45:06.976Z,98908.50
2023-05-05T07:47:38.382Z,98906.94
2023-05-05T07:50:05.724Z,98910.69
2023-05-05T07:52:45.237Z,98914.56
2023-05-05T07:55:27.654Z,98920.81
2023-05-05T07:57:55.701Z,98915.97
2023-05-05T08:00:23.585Z,98912.16
2023-05-05T08:02:53.122Z,98921.78
2023-05-05T08:05:20.147Z,98909.25
2023-05-05T08:07:47.042Z,98914.13
2023-05-05T08:10:16.520Z,98918.16
2023-05-05T08:12:43.110Z,98917.00
2023-05-05T08:15:10.649Z,98926.03
2023-05-05T08:17:45.874Z,98933.13
2023-05-05T08:20:12.760Z,98938.34
2023-05-05T08:22:40.967Z,98944.25
2023-05-05T08:25:08.611Z,98955.41
2023-05-05T08:27:35.341Z,98953.47
2023-05-05T08:30:03.337Z,98947.09
2023-05-05T08:32:30.170Z,98963.03
2023-05-05T08:34:58.628Z,98969.19
2023-05-05T08:37:26.587Z,98976.09
2023-05-05T08:39:53.853Z,98980.50
2023-05-05T08:42:35.502Z,98990.22
2023-05-05T08:45:06.886Z,98995.56
2023-05-05T08:47:36.033Z,98995.03
2023-05-05T08:50:03.643Z,99011.03
2023-05-05T08:52:37.740Z,99040.22
2023-05-05T08:55:18.094Z,99061.41
2023-05-05T08:57:52.468Z,99079.47
2023-05-05T09:00:20.386Z,99083.25
2023-05-05T09:02:47.941Z,99081.19
2023-05-05T09:05:15.242Z,99099.81
2023-05-05T09:07:42.055Z,99114.94
2023-05-05T09:10:09.737Z,99137.66
2023-05-05T09:12:41.142Z,99140.56
2023-05-05T09:15:12.882Z,99121.34
2023-05-05T09:17:40.562Z,99103.63
2023-05-05T09:20:09.270Z,99127.94
2023-05-05T09:22:46.723Z,99095.53
2023-05-05T09:25:15.657Z,99078.16
2023-05-05T09:27:44.353Z,99098.84
2023-05-05T09:30:15.007Z,99148.81
2023-05-05T09:32:53.080Z,99135.38
2023-05-05T09:35:21.662Z,99158.63
2023-05-05T09:37:48.874Z,99125.13
2023-05-05T09:40:20.954Z,99071.84
2023-05-05T09:42:48.244Z,99084.38
2023-05-05T09:45:18.435Z,99040.72
2023-05-05T09:47:48.559Z,98978.06
2023-05-05T09:50:16.877Z,98973.56
2023-05-05T09:52:54.410Z,98986.56
2023-05-05T09:55:21.556Z,98964.41
2023-05-05T09:57:48.390Z,98916.91
2023-05-05T10:00:17.330Z,98899.19
2023-05-05T10:02:47.054Z,98908.88
2023-05-05T10:05:19.110Z,98911.19
2023-05-05T10:07:47.751Z,98946.47
2023-05-05T10:10:17.710Z,98952.56
2023-05-05T10:12:46.853Z,98933.91
2023-05-05T10:15:16.446Z,98912.63
2023-05-05T10:18:06.148Z,98943.56
2023-05-05T10:20:37.656Z,99003.09
2023-05-05T10:23:07.134Z,99023.56
2023-05-05T10:25:42.835Z,99015.47
2023-05-05T10:28:17.802Z,98978.72
2023-05-05T10:30:51.854Z,98938.44
2023-05-05T10:33:40.068Z,98921.34
2023-05-05T10:36:08.220Z,98896.09
2023-05-05T10:38:39.504Z,98878.41
2023-05-05T10:41:07.229Z,98877.03
2023-05-05T10:43:36.691Z,98889.72
2023-05-05T10:46:06.811Z,98884.66
2023-05-05T10:48:46.911Z,98883.69
2023-05-05T10:51:41.556Z,98917.25
2023-05-05T10:54:21.716Z,98906.47
2023-05-05T10:56:48.696Z,98901.31
2023-05-05T10:59:42.495Z,98892.75
2023-05-05T11:02:22.940Z,98893.75
2023-05-05T11:05:14.326Z,98892.66
2023-05-05T11:07:45.766Z,98871.66
2023-05-05T11:10:18.045Z,98876.22
2023-05-05T11:13:01.052Z,98865.97
2023-05-05T11:15:28.045Z,98855.13
2023-05-05T11:17:56.926Z,98839.72
2023-05-05T11:20:36.199Z,98836.97
2023-05-05T11:23:03.257Z,98821.25
2023-05-05T11:25:41.232Z,98811.19
2023-05-05T11:28:10.903Z,98804.94
2023-05-05T11:30:55.642Z,98807.94
2023-05-05T11:33:32.006Z,98806.03
2023-05-05T11:36:00.129Z,98795.34
2023-05-05T11:38:36.745Z,98794.84
2023-05-05T11:41:31.179Z,98783.41
2023-05-05T11:44:12.215Z,98791.34
2023-05-05T11:47:02.294Z,98787.50
2023-05-05T11:49:39.799Z,98776.22
2023-05-05T11:52:12.324Z,98778.19
2023-05-05T11:54:44.520Z,98768.91
2023-05-05T11:57:11.564Z,98774.41
2023-05-05T11:59:58.675Z,98770.00
2023-05-05T12:02:29.631Z,98770.59
2023-05-05T12:04:57.034Z,98768.22
2023-05-05T12:07:29.437Z,98768.94
2023-05-05T12:09:56.568Z,98772.53
2023-05-05T12:12:40.610Z,98769.53
2023-05-05T12:15:08.095Z,98771.50
2023-05-05T12:17:42.560Z,98767.97
2023-05-05T12:20:10.441Z,98767.69
2023-05-05T12:22:39.354Z,98769.84
2023-05-05T12:25:08.214Z,98761.97
2023-05-05T12:27:35.088Z,98760.81
2023-05-05T12:30:16.241Z,98754.13
2023-05-05T12:32:43.831Z,98752.09
2023-05-05T12:35:11.814Z,98745.00
2023-05-05T12:37:41.067Z,98742.84
2023-05-05T12:40:08.737Z,98744.31
2023-05-05T12:42:39.570Z,98732.72
2023-05-05T12:45:16.236Z,98729.59
2023-05-05T12:47:42.992Z,98730.44
2023-05-05T12:50:10.470Z,98719.66
2023-05-05T12:52:41.571Z,98719.81
2023-05-05T12:55:09.197Z,98720.75
2023-05-05T12:57:36.025Z,98717.66
2023-05-05T13:00:15.804Z,98711.59
2023-05-05T13:02:42.436Z,98701.72
2023-05-05T13:05:09.554Z,98693.59
2023-05-05T13:07:36.506Z,98689.13
2023-05-05T13:10:09.938Z,98686.78
2023-05-05T13:12:36.735Z,98686.69
2023-05-05T13:15:03.933Z,98697.09
2023-05-05T13:17:32.720Z,98679.81
2023-05-05T13:20:01.001Z,98683.00
2023-05-05T13:22:28.592Z,98666.56
2023-05-05T13:24:58.489Z,98671.59
2023-05-05T13:27:25.430Z,98668.75
2023-05-05T13:29:52.235Z,98663.31
2023-05-05T13:32:18.809Z,98661.63
2023-05-05T13:34:46.305Z,98653.38
2023-05-05T13:37:13.567Z,98649.09
2023-05-05T13:39:41.730Z,98646.81
2023-05-05T13:42:09.685Z,98634.53
2023-05-05T13:44:36.287Z,98631.38
2023-05-05T13:47:03.022Z,98626.34
2023-05-05T13:49:30.343Z,98635.59
2023-05-05T13:51:57.821Z,98629.81
2023-05-05T13:54:25.012Z,98621.00
2023-05-05T13:56:52.743Z,98623.94
2023-05-05T13:59:19.699Z,98616.63
2023-05-05T14:01:46.301Z,98609.88
2023-05-05T14:04:13.004Z,98598.13
2023-05-05T14:06:41.994Z,98601.59
2023-05-05T14:09:08.632Z,98592.09
2023-05-05T14:11:35.508Z,98590.19
2023-05-05T14:14:02.514Z,98594.72
2023-05-05T14:16:29.520Z,98592.50
2023-05-05T14:18:56.111Z,98583.22
2023-05-05T14:21:22.679Z,98583.97
2023-05-05T14:23:50.049Z,98576.13
2023-05-05T14:26:17.017Z,98578.44
2023-05-05T14:28:43.675Z,98577.69
2023-05-05T14:31:10.271Z,98590.66
2023-05-05T14:33:37.208Z,98584.66
2023-05-05T14:36:04.326Z,98589.09
2023-05-05T14:38:32.658Z,98585.38
2023-05-05T14:41:03.140Z,98576.41
2023-05-05T14:43:31.691Z,98569.69
2023-05-05T14:45:58.309Z,98573.47
2023-05-05T14:48:26.673Z,98573.94
2023-05-05T14:50:53.456Z,98566.88
2023-05-05T14:53:20.090Z,98564.50
2023-05-05T14:55:46.716Z,98564.88
2023-05-05T14:58:13.219Z,98569.03
2023-05-05T15:00:39.696Z,98569.06
2023-05-05T15:03:06.425Z,98566.63
2023-05-05T15:05:33.351Z,98562.84
2023-05-05T15:08:01.460Z,98568.84
2023-05-05T15:10:27.991Z,98563.44
2023-05-05T15:12:54.951Z,98578.97
2023-05-05T15:15:21.887Z,98585.22
2023-05-05T15:17:51.303Z,98589.06
2023-05-05T15:20:17.961Z,98579.81
2023-05-05T15:22:45.344Z,98572.75
2023-05-05T15:25:11.904Z,98579.00
2023-05-05T15:27:39.741Z,98580.34
2023-05-05T15:30:07.024Z,98580.66
2023-05-05T15:32:34.160Z,98575.50
2023-05-05T15:35:00.789Z,98574.41
2023-05-05T15:37:27.895Z,98578.22
2023-05-05T15:39:55.073Z,98572.78
2023-05-05T15:42:21.707Z,98578.19
2023-05-05T15:44:48.150Z,98574.63
2023-05-05T15:47:15.143Z,98583.03
2023-05-05T15:49:41.702Z,98578.94
2023-05-05T15:52:08.433Z,98587.09
2023-05-05T15:54:35.139Z,98576.78
2023-05-05T15:57:01.984Z,98590.84
2023-05-05T15:59:28.567Z,98592.50
2023-05-05T16:01:55.199Z,98594.63
2023-05-05T16:04:22.085Z,98588.91
2023-05-05T16:06:49.098Z,98589.97
2023-05-05T16:09:15.698Z,98614.63
2023-05-05T16:11:42.326Z,98637.59
2023-05-05T16:14:09.217Z,98661.59
2023-05-05T16:16:35.857Z,98684.84
2023-05-05T16:19:02.755Z,98761.19
2023-05-05T16:21:29.491Z,98751.25
2023-05-05T16:23:55.865Z,98785.72
2023-05-05T16:26:26.378Z,98882.22
2023-05-05T16:28:52.897Z,98897.34
2023-05-05T16:31:19.699Z,99000.69
2023-05-05T16:33:46.543Z,99045.28
2023-05-05T16:36:13.458Z,99122.44
2023-05-05T16:38:40.815Z,99202.28
2023-05-05T16:41:10.018Z,99289.56
2023-05-05T16:43:43.331Z,99376.50
2023-05-05T16:46:10.477Z,99408.16
2023-05-05T16:48:39.104Z,99565.44
2023-05-05T16:51:06.530Z,99748.31
2023-05-05T16:53:33.622Z,99785.03
2023-05-05T16:56:00.999Z,99798.53
2023-05-05T16:58:29.515Z,99917.53
2023-05-05T17:00:56.242Z,99962.19
2023-05-05T17:03:23.990Z,100033.22
2023-05-05T17:06:00.754Z,100102.72
2023-05-05T17:08:29.304Z,100108.28
2023-05-05T17:10:55.957Z,100027.78
2023-05-05T17:13:22.953Z,99981.91
2023-05-05T17:15:50.070Z,99962.41
2023-05-05T17:18:17.108Z,99980.88
2023-05-05T17:20:44.031Z,99977.13
2023-05-05T17:23:10.852Z,99999.13
2023-05-05T17:25:37.870Z,99961.28
2023-05-05T17:28:04.807Z,99996.13
2023-05-05T17:30:31.352Z,99965.19
2023-05-05T17:32:58.225Z,99879.38
2023-05-05T17:35:25.865Z,99902.41
2023-05-05T17:37:54.283Z,99930.19
2023-05-05T17:40:21.839Z,99923.97
2023-05-05T17:42:48.201Z,99890.38
2023-05-05T17:45:15.005Z,99860.56
2023-05-05T17:47:41.736Z,99881.72
2023-05-05T17:50:25.878Z,99858.91
2023-05-05T17:52:52.644Z,99789.69
2023-05-05T17:55:19.276Z,99767.31
2023-05-05T17:57:45.794Z,99793.00
2023-05-05T18:00:13.182Z,99889.56
2023-05-05T18:02:40.047Z,99936.63
2023-05-05T18:05:07.599Z,99987.81
2023-05-05T18:07:37.102Z,100002.50
2023-05-05T18:10:04.000Z,99969.53
2023-05-05T18:12:33.889Z,99982.16
2023-05-05T18:15:01.554Z,100000.59
2023-05-05T18:17:29.165Z,100057.78
2023-05-05T18:19:55.786Z,100117.28
2023-05-05T18:22:23.712Z,100096.13
2023-05-05T18:24:51.983Z,100008.88
2023-05-05T18:27:19.954Z,99985.28
2023-05-05T18:29:47.100Z,99993.56
2023-05-05T18:32:21.103Z,99987.13
2023-05-05T18:34:54.621Z,99944.63
2023-05-05T18:37:23.844Z,99961.44
2023-05-05T18:39:51.770Z,100000.13
2023-05-05T18:42:19.869Z,99981.44
2023-05-05T18:44:54.434Z,99971.84
2023-05-05T18:47:21.955Z,100000.81
2023-05-05T18:49:55.592Z,100010.34
2023-05-05T18:52:26.084Z,100074.91
2023-05-05T18:54:53.762Z,100126.34
2023-05-05T18:57:21.387Z,100147.00
2023-05-05T18:59:49.681Z,100131.06
2023-05-05T19:02:17.205Z,100174.34
2023-05-05T19:04:45.767Z,100209.19
2023-05-05T19:07:35.557Z,99126.41
2023-05-05T19:10:05.991Z,99115.84
2023-05-05T19:12:33.234Z,99116.06
2023-05-05T19:15:02.204Z,99119.19
2023-05-05T19:17:31.780Z,99119.19
2023-05-05T19:20:01.449Z,99100.81
2023-05-05T19:22:29.004Z,99083.28
2023-05-05T19:24:58.957Z,99068.44
2023-05-05T19:27:29.981Z,99052.56
2023-05-05T19:30:01.511Z,99036.28
2023-05-05T19:32:30.588Z,99027.22
2023-05-05T19:34:59.204Z,99028.47
2023-05-05T19:37:27.902Z,99039.22
2023-05-05T19:39:56.861Z,99039.41
2023-05-05T19:42:24.359Z,99031.97
2023-05-05T19:44:59.652Z,99028.59
2023-05-05T19:47:29.470Z,99010.78
2023-05-05T19:49:57.864Z,98996.31
2023-05-05T19:52:26.651Z,98994.88
2023-05-05T19:54:53.789Z,98986.28
2023-05-05T19:57:20.930Z,98995.34
2023-05-05T19:59:55.918Z,98989.97
2023-05-05T20:02:22.539Z,98991.66
2023-05-05T20:04:49.079Z,98987.28
2023-05-05T20:07:15.669Z,98980.09
2023-05-05T20:09:42.303Z,98981.75
2023-05-05T20:12:09.098Z,98983.41
2023-05-05T20:14:35.611Z,98973.47
2023-05-05T20:17:02.161Z,98968.16
2023-05-05T20:19:29.751Z,98965.06
2023-05-05T20:21:58.831Z,98976.03
2023-05-05T20:24:25.372Z,98972.69
2023-05-05T20:26:53.244Z,98964.84
2023-05-05T20:29:20.774Z,98964.69
2023-05-05T20:31:47.573Z,98959.94
2023-05-05T20:34:14.844Z,98955.63
2023-05-05T20:36:41.927Z,98963.44
2023-05-05T20:39:14.433Z,98956.22
2023-05-05T20:41:41.174Z,98955.19
2023-05-05T20:44:09.542Z,98952.28
2023-05-05T20:46:36.893Z,98954.56
2023-05-05T20:49:03.860Z,98958.69
2023-05-05T20:51:30.361Z,98959.13
2023-05-05T20:53:57.418Z,98950.81
2023-05-05T20:56:24.308Z,98951.41
2023-05-05T20:58:50.742Z,98957.41
2023-05-05T21:01:17.312Z,98961.13
2023-05-05T21:03:44.002Z,98970.22
2023-05-05T21:06:11.666Z,98968.56
2023-05-05T21:08:39.822Z,98971.69
2023-05-05T21:11:09.743Z,98963.03
2023-05-05T21:13:37.569Z,98967.53
2023-05-05T21:16:04.563Z,98963.38
2023-05-05T21:18:31.509Z,98962.34
2023-05-05T21:20:58.078Z,98960.84
2023-05-05T21:23:24.902Z,98968.47
2023-05-05T21:25:51.766Z,98970.16
2023-05-05T21:28:21.079Z,98970.16
2023-05-05T21:31:04.525Z,98981.91
2023-05-05T21:33:36.466Z,98978.03
2023-05-05T21:36:07.290Z,98973.72
2023-05-05T21:38:33.800Z,98977.03
2023-05-05T21:41:00.935Z,98980.75
2023-05-05T21:43:27.614Z,98970.22
2023-05-05T21:46:02.352Z,98978.06
2023-05-05T21:48:31.821Z,98973.28
2023-05-05T21:50:58.826Z,98962.94
2023-05-05T21:53:28.030Z,98970.16
2023-05-05T21:55:54.638Z,98967.31
2023-05-05T21:58:21.334Z,98963.19
2023-05-05T22:00:55.375Z,98961.78
2023-05-05T22:03:24.358Z,98963.63
2023-05-05T22:05:50.998Z,98964.44
2023-05-05T22:08:18.834Z,98949.97
2023-05-05T22:10:45.655Z,98955.78
2023-05-05T22:13:14.834Z,98955.38
2023-05-05T22:15:46.547Z,98947.56
2023-05-05T22:18:14.226Z,98955.19
2023-05-05T22:20:41.099Z,98950.84
2023-05-05T22:23:07.935Z,98955.38
2023-05-05T22:25:35.973Z,98955.38
2023-05-05T22:28:05.609Z,98956.44
2023-05-05T22:30:32.307Z,98949.81
2023-05-05T22:32:58.901Z,98942.16
2023-05-05T22:35:29.101Z,98944.22
2023-05-05T22:37:55.878Z,98933.50
2023-05-05T22:40:22.649Z,98934.34
2023-05-05T22:42:49.244Z,98928.53
2023-05-05T22:45:15.839Z,98933.69
2023-05-05T22:47:43.482Z,98934.28
2023-05-05T22:50:11.707Z,98927.66
2023-05-05T22:52:38.642Z,98937.03
2023-05-05T22:55:05.450Z,98929.59
2023-05-05T22:57:35.430Z,98933.47
2023-05-05T23:00:03.645Z,98931.84
2023-05-05T23:02:30.578Z,98934.91
2023-05-05T23:04:58.449Z,98935.97
2023-05-05T23:07:25.338Z,98944.41
2023-05-05T23:09:52.846Z,98940.06
2023-05-05T23:12:19.971Z,98944.59
2023-05-05T23:14:46.550Z,98946.66
2023-05-05T23:17:13.561Z,98948.34
2023-05-05T23:19:42.805Z,98944.84
2023-05-05T23:22:09.421Z,98934.28
2023-05-05T23:24:36.013Z,98936.81
2023-05-05T23:27:02.745Z,98946.91
2023-05-05T23:29:30.063Z,98948.72
2023-05-05T23:31:57.952Z,98944.72
2023-05-05T23:34:25.416Z,98933.84
2023-05-05T23:36:52.467Z,98928.47
2023-05-05T23:39:19.210Z,98931.00
2023-05-05T23:41:47.219Z,98932.66
2023-05-05T23:44:13.739Z,98930.78
2023-05-05T23:46:40.385Z,98933.91
2023-05-05T23:49:07.360Z,98926.91
2023-05-05T23:51:34.325Z,98926.91
2023-05-05T23:54:02.465Z,98928.09
2023-05-05T23:56:29.056Z,98934.91
2023-05-05T23:58:55.671Z,98929.53
